sensor_id;sensor_type;location;lat;lon;timestamp;pressure;altitude;pressure_sealevel;temperature;humidity
21658;BME280;10990;48.174;9.782;2023-03-03T00:01:05;94160.91;;;1.45;100.00
21658;BME280;10990;48.174;9.782;2023-03-03T00:03:32;94151.47;;;1.54;100.00
21658;BME280;10990;48.174;9.782;2023-03-03T00:05:59;94158.91;;;1.59;100.00
21658;BME280;10990;48.174;9.782;2023-03-03T00:08:27;94149.19;;;1.61;100.00
21658;BME280;10990;48.174;9.782;2023-03-03T00:10:54;94153.28;;;1.63;100.00
21658;BME280;10990;48.174;9.782;2023-03-03T00:13:23;94158.38;;;1.65;100.00
21658;BME280;10990;48.174;9.782;2023-03-03T00:15:50;94153.03;;;1.66;100.00
21658;BME280;10990;48.174;9.782;2023-03-03T00:18:23;94166.00;;;1.56;100.00
21658;BME280;10990;48.174;9.782;2023-03-03T00:20:53;94156.28;;;1.59;100.00
21658;BME280;10990;48.174;9.782;2023-03-03T00:23:27;94150.22;;;1.48;100.00
21658;BME280;10990;48.174;9.782;2023-03-03T00:25:56;94147.50;;;1.50;100.00
21658;BME280;10990;48.174;9.782;2023-03-03T00:28:25;94150.22;;;1.48;100.00
21658;BME280;10990;48.174;9.782;2023-03-03T00:30:53;94153.09;;;1.45;100.00
21658;BME280;10990;48.174;9.782;2023-03-03T00:33:28;94155.13;;;1.42;100.00
21658;BME280;10990;48.174;9.782;2023-03-03T00:36:09;94154.16;;;1.43;100.00
21658;BME280;10990;48.174;9.782;2023-03-03T00:38:48;94153.34;;;1.42;100.00
21658;BME280;10990;48.174;9.782;2023-03-03T00:41:18;94155.84;;;1.44;100.00
21658;BME280;10990;48.174;9.782;2023-03-03T00:43:45;94150.38;;;1.47;100.00
21658;BME280;10990;48.174;9.782;2023-03-03T00:46:15;94159.00;;;1.47;100.00
21658;BME280;10990;48.174;9.782;2023-03-03T00:48:44;94167.06;;;1.44;100.00
21658;BME280;10990;48.174;9.782;2023-03-03T00:51:24;94172.13;;;1.46;100.00
21658;BME280;10990;48.174;9.782;2023-03-03T00:53:52;94161.88;;;1.54;100.00
21658;BME280;10990;48.174;9.782;2023-03-03T00:56:18;94172.47;;;1.52;100.00
21658;BME280;10990;48.174;9.782;2023-03-03T00:58:45;94164.53;;;1.64;100.00
21658;BME280;10990;48.174;9.782;2023-03-03T01:01:14;94171.94;;;1.59;100.00
21658;BME280;10990;48.174;9.782;2023-03-03T01:03:46;94165.47;;;1.63;100.00
21658;BME280;10990;48.174;9.782;2023-03-03T01:06:13;94170.69;;;1.63;100.00
21658;BME280;10990;48.174;9.782;2023-03-03T01:08:41;94169.22;;;1.70;100.00
21658;BME280;10990;48.174;9.782;2023-03-03T01:11:11;94167.44;;;1.70;100.00
21658;BME280;10990;48.174;9.782;2023-03-03T01:13:43;94166.63;;;1.79;100.00
21658;BME280;10990;48.174;9.782;2023-03-03T01:16:11;94173.56;;;1.60;100.00
21658;BME280;10990;48.174;9.782;2023-03-03T01:18:38;94173.88;;;1.66;100.00
21658;BME280;10990;48.174;9.782;2023-03-03T01:21:08;94183.97;;;1.60;100.00
21658;BME280;10990;48.174;9.782;2023-03-03T01:23:35;94174.44;;;1.70;100.00
21658;BME280;10990;48.174;9.782;2023-03-03T01:26:02;94179.22;;;1.65;100.00
21658;BME280;10990;48.174;9.782;2023-03-03T01:28:29;94189.28;;;1.48;100.00
21658;BME280;10990;48.174;9.782;2023-03-03T01:30:59;94177.41;;;1.65;100.00
21658;BME280;10990;48.174;9.782;2023-03-03T01:33:26;94185.25;;;1.65;100.00
21658;BME280;10990;48.174;9.782;2023-03-03T01:35:53;94180.47;;;1.70;100.00
21658;BME280;10990;48.174;9.782;2023-03-03T01:38:21;94183.19;;;1.69;100.00
21658;BME280;10990;48.174;9.782;2023-03-03T01:40:52;94186.75;;;1.58;100.00
21658;BME280;10990;48.174;9.782;2023-03-03T01:43:19;94190.97;;;1.49;100.00
21658;BME280;10990;48.174;9.782;2023-03-03T01:49:05;94175.38;;;1.69;100.00
21658;BME280;10990;48.174;9.782;2023-03-03T01:51:35;94178.69;;;1.71;100.00
21658;BME280;10990;48.174;9.782;2023-03-03T01:54:10;94183.59;;;1.64;100.00
21658;BME280;10990;48.174;9.782;2023-03-03T01:56:38;94183.34;;;1.67;100.00
21658;BME280;10990;48.174;9.782;2023-03-03T01:59:10;94174.00;;;1.74;100.00
21658;BME280;10990;48.174;9.782;2023-03-03T02:01:39;94184.59;;;1.73;100.00
21658;BME280;10990;48.174;9.782;2023-03-03T02:04:08;94180.59;;;1.69;100.00
21658;BME280;10990;48.174;9.782;2023-03-03T02:06:37;94184.31;;;1.66;100.00
21658;BME280;10990;48.174;9.782;2023-03-03T02:09:11;94181.69;;;1.66;100.00
21658;BME280;10990;48.174;9.782;2023-03-03T02:11:44;94177.31;;;1.67;100.00
21658;BME280;10990;48.174;9.782;2023-03-03T02:14:12;94178.81;;;1.69;100.00
21658;BME280;10990;48.174;9.782;2023-03-03T02:16:42;94183.16;;;1.59;100.00
21658;BME280;10990;48.174;9.782;2023-03-03T02:19:16;94181.38;;;1.60;100.00
21658;BME280;10990;48.174;9.782;2023-03-03T02:21:47;94167.97;;;1.64;100.00
21658;BME280;10990;48.174;9.782;2023-03-03T02:24:22;94174.25;;;1.62;100.00
21658;BME280;10990;48.174;9.782;2023-03-03T02:26:52;94181.13;;;1.63;100.00
21658;BME280;10990;48.174;9.782;2023-03-03T02:29:19;94165.22;;;1.66;100.00
21658;BME280;10990;48.174;9.782;2023-03-03T02:31:47;94164.53;;;1.64;100.00
21658;BME280;10990;48.174;9.782;2023-03-03T02:34:13;94167.91;;;1.54;100.00
21658;BME280;10990;48.174;9.782;2023-03-03T02:36:40;94157.94;;;1.60;100.00
21658;BME280;10990;48.174;9.782;2023-03-03T02:39:09;94150.75;;;1.52;100.00
21658;BME280;10990;48.174;9.782;2023-03-03T02:41:40;94151.03;;;1.49;100.00
21658;BME280;10990;48.174;9.782;2023-03-03T02:44:12;94146.56;;;1.61;100.00
21658;BME280;10990;48.174;9.782;2023-03-03T02:46:42;94149.56;;;1.56;100.00
21658;BME280;10990;48.174;9.782;2023-03-03T02:49:12;94153.53;;;1.60;100.00
21658;BME280;10990;48.174;9.782;2023-03-03T02:51:40;94151.50;;;1.64;100.00
21658;BME280;10990;48.174;9.782;2023-03-03T02:54:08;94145.59;;;1.62;100.00
21658;BME280;10990;48.174;9.782;2023-03-03T02:56:35;94152.81;;;1.48;100.00
21658;BME280;10990;48.174;9.782;2023-03-03T02:59:03;94145.88;;;1.59;100.00
21658;BME280;10990;48.174;9.782;2023-03-03T03:01:35;94150.81;;;1.62;100.00
21658;BME280;10990;48.174;9.782;2023-03-03T03:04:06;94152.00;;;1.57;100.00
21658;BME280;10990;48.174;9.782;2023-03-03T03:06:34;94150.94;;;1.60;100.00
21658;BME280;10990;48.174;9.782;2023-03-03T03:09:02;94159.69;;;1.49;100.00
21658;BME280;10990;48.174;9.782;2023-03-03T03:11:29;94163.78;;;1.52;100.00
21658;BME280;10990;48.174;9.782;2023-03-03T03:13:56;94168.34;;;1.50;100.00
21658;BME280;10990;48.174;9.782;2023-03-03T03:16:23;94167.91;;;1.54;100.00
21658;BME280;10990;48.174;9.782;2023-03-03T03:18:52;94163.56;;;1.55;100.00
21658;BME280;10990;48.174;9.782;2023-03-03T03:21:19;94162.31;;;1.59;100.00
21658;BME280;10990;48.174;9.782;2023-03-03T03:23:45;94174.63;;;1.47;100.00
21658;BME280;10990;48.174;9.782;2023-03-03T03:26:12;94163.66;;;1.53;100.00
21658;BME280;10990;48.174;9.782;2023-03-03T03:28:40;94163.28;;;1.58;100.00
21658;BME280;10990;48.174;9.782;2023-03-03T03:31:07;94163.84;;;1.62;100.00
21658;BME280;10990;48.174;9.782;2023-03-03T03:33:34;94169.16;;;1.60;100.00
21658;BME280;10990;48.174;9.782;2023-03-03T03:36:04;94180.78;;;1.46;100.00
21658;BME280;10990;48.174;9.782;2023-03-03T03:38:32;94177.66;;;1.52;100.00
21658;BME280;10990;48.174;9.782;2023-03-03T03:41:03;94180.78;;;1.46;100.00
21658;BME280;10990;48.174;9.782;2023-03-03T03:43:30;94173.66;;;1.48;100.00
21658;BME280;10990;48.174;9.782;2023-03-03T03:45:58;94179.13;;;1.45;100.00
21658;BME280;10990;48.174;9.782;2023-03-03T03:48:24;94181.75;;;1.45;100.00
21658;BME280;10990;48.174;9.782;2023-03-03T03:50:51;94173.91;;;1.36;100.00
21658;BME280;10990;48.174;9.782;2023-03-03T03:53:21;94175.81;;;1.43;100.00
21658;BME280;10990;48.174;9.782;2023-03-03T03:55:48;94183.91;;;1.40;100.00
21658;BME280;10990;48.174;9.782;2023-03-03T03:58:17;94179.13;;;1.45;100.00
21658;BME280;10990;48.174;9.782;2023-03-03T04:00:49;94184.50;;;1.44;100.00
21658;BME280;10990;48.174;9.782;2023-03-03T04:03:17;94181.03;;;1.43;100.00
21658;BME280;10990;48.174;9.782;2023-03-03T04:05:46;94182.00;;;1.42;100.00
21658;BME280;10990;48.174;9.782;2023-03-03T04:08:13;94186.25;;;1.43;100.00
21658;BME280;10990;48.174;9.782;2023-03-03T04:10:42;94185.31;;;1.44;100.00
21658;BME280;10990;48.174;9.782;2023-03-03T04:13:10;94178.69;;;1.40;100.00
21658;BME280;10990;48.174;9.782;2023-03-03T04:15:37;94190.19;;;1.38;100.00
21658;BME280;10990;48.174;9.782;2023-03-03T04:18:04;94185.25;;;1.34;100.00
21658;BME280;10990;48.174;9.782;2023-03-03T04:20:31;94186.66;;;1.39;100.00
21658;BME280;10990;48.174;9.782;2023-03-03T04:22:58;94185.69;;;1.40;100.00
21658;BME280;10990;48.174;9.782;2023-03-03T04:25:25;94186.06;;;1.35;100.00
21658;BME280;10990;48.174;9.782;2023-03-03T04:27:54;94173.03;;;1.35;100.00
21658;BME280;10990;48.174;9.782;2023-03-03T04:30:22;94178.50;;;1.32;100.00
21658;BME280;10990;48.174;9.782;2023-03-03T04:32:52;94173.31;;;1.32;100.00
21658;BME280;10990;48.174;9.782;2023-03-03T04:35:22;94173.47;;;1.40;100.00
21658;BME280;10990;48.174;9.782;2023-03-03T04:37:49;94168.00;;;1.43;100.00
21658;BME280;10990;48.174;9.782;2023-03-03T04:40:16;94172.03;;;1.47;100.00
21658;BME280;10990;48.174;9.782;2023-03-03T04:42:45;94178.13;;;1.37;100.00
21658;BME280;10990;48.174;9.782;2023-03-03T04:45:14;94172.38;;;1.33;100.00
21658;BME280;10990;48.174;9.782;2023-03-03T04:47:41;94168.81;;;1.34;100.00
21658;BME280;10990;48.174;9.782;2023-03-03T04:50:09;94163.31;;;1.37;100.00
21658;BME280;10990;48.174;9.782;2023-03-03T04:52:36;94172.56;;;1.41;100.00
21658;BME280;10990;48.174;9.782;2023-03-03T04:55:04;94167.91;;;1.45;100.00
21658;BME280;10990;48.174;9.782;2023-03-03T04:57:32;94158.59;;;1.52;100.00
21658;BME280;10990;48.174;9.782;2023-03-03T04:59:58;94164.38;;;1.55;100.00
21658;BME280;10990;48.174;9.782;2023-03-03T05:02:26;94162.97;;;1.51;100.00
21658;BME280;10990;48.174;9.782;2023-03-03T05:04:54;94177.88;;;1.40;100.00
21658;BME280;10990;48.174;9.782;2023-03-03T05:07:21;94163.50;;;1.45;100.00
21658;BME280;10990;48.174;9.782;2023-03-03T05:09:48;94157.75;;;1.51;100.00
21658;BME280;10990;48.174;9.782;2023-03-03T05:12:15;94168.84;;;1.44;100.00
21658;BME280;10990;48.174;9.782;2023-03-03T05:14:42;94174.53;;;1.28;100.00
21658;BME280;10990;48.174;9.782;2023-03-03T05:17:09;94155.25;;;1.40;100.00
21658;BME280;10990;48.174;9.782;2023-03-03T05:19:37;94165.41;;;1.43;100.00
21658;BME280;10990;48.174;9.782;2023-03-03T05:22:03;94156.56;;;1.55;100.00
21658;BME280;10990;48.174;9.782;2023-03-03T05:24:30;94163.94;;;1.50;100.00
21658;BME280;10990;48.174;9.782;2023-03-03T05:26:57;94167.09;;;1.54;100.00
21658;BME280;10990;48.174;9.782;2023-03-03T05:29:24;94180.91;;;1.45;100.00
21658;BME280;10990;48.174;9.782;2023-03-03T05:31:50;94189.38;;;1.37;100.00
21658;BME280;10990;48.174;9.782;2023-03-03T05:34:17;94186.25;;;1.43;100.00
21658;BME280;10990;48.174;9.782;2023-03-03T05:36:45;94182.09;;;1.31;100.00
21658;BME280;10990;48.174;9.782;2023-03-03T05:39:12;94181.19;;;1.42;100.00
21658;BME280;10990;48.174;9.782;2023-03-03T05:41:39;94192.94;;;1.36;100.00
21658;BME280;10990;48.174;9.782;2023-03-03T05:44:05;94190.53;;;1.44;100.00
21658;BME280;10990;48.174;9.782;2023-03-03T05:46:32;94185.69;;;1.40;100.00
21658;BME280;10990;48.174;9.782;2023-03-03T05:48:59;94185.59;;;1.51;100.00
21658;BME280;10990;48.174;9.782;2023-03-03T05:51:25;94197.06;;;1.39;100.00
21658;BME280;10990;48.174;9.782;2023-03-03T05:53:53;94189.81;;;1.42;100.00
21658;BME280;10990;48.174;9.782;2023-03-03T05:56:20;94190.81;;;1.51;100.00
21658;BME280;10990;48.174;9.782;2023-03-03T05:58:47;94199.69;;;1.39;100.00
21658;BME280;10990;48.174;9.782;2023-03-03T06:01:14;94197.09;;;1.48;100.00
21658;BME280;10990;48.174;9.782;2023-03-03T06:03:40;94206.81;;;1.46;100.00
21658;BME280;10990;48.174;9.782;2023-03-03T06:06:07;94198.19;;;1.46;100.00
21658;BME280;10990;48.174;9.782;2023-03-03T06:08:34;94202.06;;;1.51;100.00
21658;BME280;10990;48.174;9.782;2023-03-03T06:11:02;94214.00;;;1.54;100.00
21658;BME280;10990;48.174;9.782;2023-03-03T06:13:29;94217.56;;;1.53;100.00
21658;BME280;10990;48.174;9.782;2023-03-03T06:15:56;94222.63;;;1.54;100.00
21658;BME280;10990;48.174;9.782;2023-03-03T06:18:22;94218.94;;;1.57;100.00
21658;BME280;10990;48.174;9.782;2023-03-03T06:20:50;94228.97;;;1.62;100.00
21658;BME280;10990;48.174;9.782;2023-03-03T06:23:17;94234.47;;;1.59;100.00
21658;BME280;10990;48.174;9.782;2023-03-03T06:25:44;94238.44;;;1.63;100.00
21658;BME280;10990;48.174;9.782;2023-03-03T06:28:13;94243.09;;;1.59;100.00
21658;BME280;10990;48.174;9.782;2023-03-03T06:30:40;94238.16;;;1.56;100.00
21658;BME280;10990;48.174;9.782;2023-03-03T06:33:07;94248.47;;;1.37;100.00
21658;BME280;10990;48.174;9.782;2023-03-03T06:35:33;94237.19;;;1.57;100.00
21658;BME280;10990;48.174;9.782;2023-03-03T06:38:00;94230.88;;;1.60;100.00
21658;BME280;10990;48.174;9.782;2023-03-03T06:40:27;94233.94;;;1.65;100.00
21658;BME280;10990;48.174;9.782;2023-03-03T06:42:54;94234.75;;;1.65;100.00
21658;BME280;10990;48.174;9.782;2023-03-03T06:45:22;94237.31;;;1.55;100.00
21658;BME280;10990;48.174;9.782;2023-03-03T06:47:49;94238.00;;;1.57;100.00
21658;BME280;10990;48.174;9.782;2023-03-03T06:50:17;94238.31;;;1.64;100.00
21658;BME280;10990;48.174;9.782;2023-03-03T06:52:45;94232.84;;;1.67;100.00
21658;BME280;10990;48.174;9.782;2023-03-03T06:55:17;94236.53;;;1.65;100.00
21658;BME280;10990;48.174;9.782;2023-03-03T06:57:46;94238.63;;;1.71;100.00
21658;BME280;10990;48.174;9.782;2023-03-03T07:00:17;94242.63;;;1.75;100.00
21658;BME280;10990;48.174;9.782;2023-03-03T07:02:47;94249.94;;;1.60;100.00
21658;BME280;10990;48.174;9.782;2023-03-03T07:05:19;94255.16;;;1.60;100.00
21658;BME280;10990;48.174;9.782;2023-03-03T07:07:46;94248.91;;;1.72;100.00
21658;BME280;10990;48.174;9.782;2023-03-03T07:10:20;94246.22;;;1.84;100.00
21658;BME280;10990;48.174;9.782;2023-03-03T07:12:47;94252.38;;;1.83;100.00
21658;BME280;10990;48.174;9.782;2023-03-03T07:15:15;94249.13;;;1.90;100.00
21658;BME280;10990;48.174;9.782;2023-03-03T07:17:44;94254.03;;;1.84;100.00
21658;BME280;10990;48.174;9.782;2023-03-03T07:20:18;94254.34;;;1.90;100.00
21658;BME280;10990;48.174;9.782;2023-03-03T07:22:46;94252.97;;;1.96;100.00
21658;BME280;10990;48.174;9.782;2023-03-03T07:25:20;94253.81;;;1.96;100.00
21658;BME280;10990;48.174;9.782;2023-03-03T07:27:49;94253.94;;;1.95;100.00
21658;BME280;10990;48.174;9.782;2023-03-03T07:30:22;94269.31;;;1.98;100.00
21658;BME280;10990;48.174;9.782;2023-03-03T07:32:51;94267.72;;;2.07;100.00
21658;BME280;10990;48.174;9.782;2023-03-03T07:35:46;94263.34;;;2.17;100.00
21658;BME280;10990;48.174;9.782;2023-03-03T07:38:23;94272.56;;;2.21;100.00
21658;BME280;10990;48.174;9.782;2023-03-03T07:40:52;94288.31;;;2.19;100.00
21658;BME280;10990;48.174;9.782;2023-03-03T07:43:34;94302.88;;;2.12;100.00
21658;BME280;10990;48.174;9.782;2023-03-03T07:46:16;94307.25;;;2.12;100.00
21658;BME280;10990;48.174;9.782;2023-03-03T07:48:46;94313.66;;;1.98;100.00
21658;BME280;10990;48.174;9.782;2023-03-03T07:51:18;94299.00;;;2.16;100.00
21658;BME280;10990;48.174;9.782;2023-03-03T07:53:47;94302.94;;;2.32;100.00
21658;BME280;10990;48.174;9.782;2023-03-03T07:56:21;94317.88;;;2.30;100.00
21658;BME280;10990;48.174;9.782;2023-03-03T07:58:50;94320.63;;;2.28;100.00
21658;BME280;10990;48.174;9.782;2023-03-03T08:01:33;94319.22;;;2.24;100.00
21658;BME280;10990;48.174;9.782;2023-03-03T08:04:12;94326.78;;;2.27;100.00
21658;BME280;10990;48.174;9.782;2023-03-03T08:06:44;94327.25;;;2.42;100.00
21658;BME280;10990;48.174;9.782;2023-03-03T08:12:22;94343.09;;;2.19;100.00
21658;BME280;10990;48.174;9.782;2023-03-03T08:14:51;94340.97;;;2.34;100.00
21658;BME280;10990;48.174;9.782;2023-03-03T08:17:20;94340.38;;;2.31;100.00
21658;BME280;10990;48.174;9.782;2023-03-03T08:19:48;94333.97;;;2.44;100.00
21658;BME280;10990;48.174;9.782;2023-03-03T08:22:19;94340.28;;;2.42;100.00
21658;BME280;10990;48.174;9.782;2023-03-03T08:24:50;94342.50;;;2.46;100.00
21658;BME280;10990;48.174;9.782;2023-03-03T08:27:17;94342.56;;;2.56;100.00
21658;BME280;10990;48.174;9.782;2023-03-03T08:29:43;94342.84;;;2.63;100.00
21658;BME280;10990;48.174;9.782;2023-03-03T08:32:10;94342.41;;;2.67;100.00
21658;BME280;10990;48.174;9.782;2023-03-03T08:34:37;94353.13;;;2.64;100.00
21658;BME280;10990;48.174;9.782;2023-03-03T08:37:03;94343.53;;;2.75;100.00
21658;BME280;10990;48.174;9.782;2023-03-03T08:39:32;94345.59;;;2.81;100.00
21658;BME280;10990;48.174;9.782;2023-03-03T08:41:59;94354.00;;;2.84;100.00
21658;BME280;10990;48.174;9.782;2023-03-03T08:44:25;94359.25;;;2.94;100.00
21658;BME280;10990;48.174;9.782;2023-03-03T08:46:52;94364.44;;;2.84;100.00
21658;BME280;10990;48.174;9.782;2023-03-03T08:49:20;94378.19;;;2.86;100.00
21658;BME280;10990;48.174;9.782;2023-03-03T08:51:47;94380.25;;;2.92;100.00
21658;BME280;10990;48.174;9.782;2023-03-03T08:54:13;94384.81;;;2.90;100.00
21658;BME280;10990;48.174;9.782;2023-03-03T08:56:42;94376.69;;;3.03;100.00
21658;BME280;10990;48.174;9.782;2023-03-03T08:59:08;94384.00;;;3.00;100.00
21658;BME280;10990;48.174;9.782;2023-03-03T09:01:35;94388.81;;;3.04;100.00
21658;BME280;10990;48.174;9.782;2023-03-03T09:04:02;94387.19;;;3.13;100.00
21658;BME280;10990;48.174;9.782;2023-03-03T09:06:29;94399.81;;;3.08;100.00
21658;BME280;10990;48.174;9.782;2023-03-03T09:08:56;94396.53;;;3.16;100.00
21658;BME280;10990;48.174;9.782;2023-03-03T09:11:25;94408.19;;;3.11;100.00
21658;BME280;10990;48.174;9.782;2023-03-03T09:13:58;94396.25;;;3.28;100.00
21658;BME280;10990;48.174;9.782;2023-03-03T09:16:29;94404.63;;;3.12;100.00
21658;BME280;10990;48.174;9.782;2023-03-03T09:19:15;94405.34;;;3.24;100.00
21658;BME280;10990;48.174;9.782;2023-03-03T09:21:42;94395.97;;;3.31;100.00
21658;BME280;10990;48.174;9.782;2023-03-03T09:24:19;94398.47;;;3.33;100.00
21658;BME280;10990;48.174;9.782;2023-03-03T09:26:49;94401.06;;;3.43;100.00
21658;BME280;10990;48.174;9.782;2023-03-03T09:29:24;94401.50;;;3.48;100.00
21658;BME280;10990;48.174;9.782;2023-03-03T09:31:52;94420.75;;;3.37;100.00
21658;BME280;10990;48.174;9.782;2023-03-03T09:34:22;94422.28;;;3.59;100.00
21658;BME280;10990;48.174;9.782;2023-03-03T09:36:50;94428.34;;;3.69;100.00
21658;BME280;10990;48.174;9.782;2023-03-03T09:39:18;94442.34;;;3.68;100.00
21658;BME280;10990;48.174;9.782;2023-03-03T09:42:06;94444.31;;;3.66;100.00
21658;BME280;10990;48.174;9.782;2023-03-03T09:47:45;94463.69;;;3.73;100.00
21658;BME280;10990;48.174;9.782;2023-03-03T09:50:26;94481.72;;;3.67;100.00
21658;BME280;10990;48.174;9.782;2023-03-03T09:53:06;94492.56;;;3.62;100.00
21658;BME280;10990;48.174;9.782;2023-03-03T09:55:44;94486.69;;;3.70;100.00
21658;BME280;10990;48.174;9.782;2023-03-03T09:58:33;94502.94;;;3.83;100.00
21658;BME280;10990;48.174;9.782;2023-03-03T10:01:13;94509.66;;;3.95;100.00
21658;BME280;10990;48.174;9.782;2023-03-03T10:06:38;94531.97;;;3.90;100.00
21658;BME280;10990;48.174;9.782;2023-03-03T10:09:31;94542.84;;;3.95;100.00
21658;BME280;10990;48.174;9.782;2023-03-03T10:12:08;94553.03;;;3.98;100.00
21658;BME280;10990;48.174;9.782;2023-03-03T10:14:53;94553.47;;;4.03;100.00
21658;BME280;10990;48.174;9.782;2023-03-03T10:17:33;94575.88;;;3.96;100.00
21658;BME280;10990;48.174;9.782;2023-03-03T10:20:13;94582.38;;;4.11;100.00
21658;BME280;10990;48.174;9.782;2023-03-03T10:22:49;94589.38;;;4.11;100.00
21658;BME280;10990;48.174;9.782;2023-03-03T10:25:25;94603.72;;;4.07;100.00
21658;BME280;10990;48.174;9.782;2023-03-03T10:28:05;94613.31;;;3.96;100.00
21658;BME280;10990;48.174;9.782;2023-03-03T10:30:44;94616.38;;;4.01;100.00
21658;BME280;10990;48.174;9.782;2023-03-03T10:33:23;94612.53;;;4.25;100.00
21658;BME280;10990;48.174;9.782;2023-03-03T10:36:31;94633.75;;;4.22;100.00
21658;BME280;10990;48.174;9.782;2023-03-03T10:39:15;94622.88;;;4.46;100.00
21658;BME280;10990;48.174;9.782;2023-03-03T10:42:24;94640.25;;;4.37;100.00
21658;BME280;10990;48.174;9.782;2023-03-03T10:45:23;94626.88;;;4.50;100.00
21658;BME280;10990;48.174;9.782;2023-03-03T10:48:05;94623.56;;;4.67;100.00
21658;BME280;10990;48.174;9.782;2023-03-03T10:50:44;94633.50;;;4.74;100.00
21658;BME280;10990;48.174;9.782;2023-03-03T10:53:21;94671.66;;;4.37;100.00
21658;BME280;10990;48.174;9.782;2023-03-03T10:56:08;94669.75;;;4.39;100.00
21658;BME280;10990;48.174;9.782;2023-03-03T10:58:51;94667.00;;;4.51;100.00
21658;BME280;10990;48.174;9.782;2023-03-03T11:01:25;94671.53;;;4.78;100.00
21658;BME280;10990;48.174;9.782;2023-03-03T11:04:05;94689.72;;;4.89;100.00
21658;BME280;10990;48.174;9.782;2023-03-03T11:06:42;94711.34;;;5.01;100.00
21658;BME280;10990;48.174;9.782;2023-03-03T11:09:26;94732.47;;;5.09;100.00
21658;BME280;10990;48.174;9.782;2023-03-03T11:12:02;94770.25;;;4.97;100.00
21658;BME280;10990;48.174;9.782;2023-03-03T11:14:38;94797.25;;;4.78;100.00
21658;BME280;10990;48.174;9.782;2023-03-03T11:17:16;94800.19;;;4.84;100.00
21658;BME280;10990;48.174;9.782;2023-03-03T11:19:55;94805.97;;;4.88;100.00
21658;BME280;10990;48.174;9.782;2023-03-03T11:22:33;94797.03;;;5.20;100.00
21658;BME280;10990;48.174;9.782;2023-03-03T11:25:15;94825.56;;;5.03;100.00
21658;BME280;10990;48.174;9.782;2023-03-03T11:27:58;94835.09;;;5.04;100.00
21658;BME280;10990;48.174;9.782;2023-03-03T11:30:38;94834.53;;;5.10;100.00
21658;BME280;10990;48.174;9.782;2023-03-03T11:33:11;94838.41;;;5.26;100.00
21658;BME280;10990;48.174;9.782;2023-03-03T11:35:44;94855.09;;;5.34;100.00
21658;BME280;10990;48.174;9.782;2023-03-03T11:38:29;94868.09;;;5.36;100.00
21658;BME280;10990;48.174;9.782;2023-03-03T11:41:02;94879.06;;;5.01;100.00
21658;BME280;10990;48.174;9.782;2023-03-03T11:43:33;94862.97;;;5.25;100.00
21658;BME280;10990;48.174;9.782;2023-03-03T11:46:06;94876.16;;;4.94;100.00
21658;BME280;10990;48.174;9.782;2023-03-03T11:48:38;94850.53;;;5.17;100.00
21658;BME280;10990;48.174;9.782;2023-03-03T11:51:13;94858.72;;;5.24;100.00
21658;BME280;10990;48.174;9.782;2023-03-03T11:53:54;94860.34;;;5.54;100.00
21658;BME280;10990;48.174;9.782;2023-03-03T11:56:27;94872.38;;;5.47;100.00
21658;BME280;10990;48.174;9.782;2023-03-03T11:59:08;94886.03;;;5.21;100.00
21658;BME280;10990;48.174;9.782;2023-03-03T12:01:45;94884.75;;;5.06;100.00
21658;BME280;10990;48.174;9.782;2023-03-03T12:04:18;94883.31;;;4.82;100.00
21658;BME280;10990;48.174;9.782;2023-03-03T12:06:56;94879.72;;;4.83;100.00
21658;BME280;10990;48.174;9.782;2023-03-03T12:09:39;94851.53;;;5.16;100.00
21658;BME280;10990;48.174;9.782;2023-03-03T12:12:13;94865.16;;;5.29;100.00
21658;BME280;10990;48.174;9.782;2023-03-03T12:15:01;94879.41;;;5.27;100.00
21658;BME280;10990;48.174;9.782;2023-03-03T12:17:43;94891.25;;;5.21;100.00
21658;BME280;10990;48.174;9.782;2023-03-03T12:20:17;94896.22;;;5.34;100.00
21658;BME280;10990;48.174;9.782;2023-03-03T12:22:56;94900.25;;;5.67;100.00
21658;BME280;10990;48.174;9.782;2023-03-03T12:25:33;94929.81;;;5.50;100.00
21658;BME280;10990;48.174;9.782;2023-03-03T12:28:04;94952.66;;;5.28;100.00
21658;BME280;10990;48.174;9.782;2023-03-03T12:30:48;94936.41;;;5.54;100.00
21658;BME280;10990;48.174;9.782;2023-03-03T12:33:31;94940.84;;;5.73;100.00
21658;BME280;10990;48.174;9.782;2023-03-03T12:36:10;94946.91;;;5.54;100.00
21658;BME280;10990;48.174;9.782;2023-03-03T12:38:48;94931.88;;;5.56;100.00
21658;BME280;10990;48.174;9.782;2023-03-03T12:41:26;94939.34;;;5.60;100.00
21658;BME280;10990;48.174;9.782;2023-03-03T12:44:02;94946.09;;;5.73;100.00
21658;BME280;10990;48.174;9.782;2023-03-03T12:46:42;94943.78;;;5.99;100.00
21658;BME280;10990;48.174;9.782;2023-03-03T12:49:10;94951.38;;;6.02;100.00
21658;BME280;10990;48.174;9.782;2023-03-03T12:51:47;94971.28;;;5.95;100.00
21658;BME280;10990;48.174;9.782;2023-03-03T12:54:28;94969.34;;;6.06;100.00
21658;BME280;10990;48.174;9.782;2023-03-03T12:57:00;95018.16;;;5.69;100.00
21658;BME280;10990;48.174;9.782;2023-03-03T12:59:37;95016.22;;;5.61;100.00
21658;BME280;10990;48.174;9.782;2023-03-03T13:02:24;95026.13;;;5.98;100.00
21658;BME280;10990;48.174;9.782;2023-03-03T13:05:00;95052.38;;;5.98;100.00
21658;BME280;10990;48.174;9.782;2023-03-03T13:07:35;95076.56;;;6.11;100.00
21658;BME280;10990;48.174;9.782;2023-03-03T13:10:13;95096.06;;;6.28;100.00
21658;BME280;10990;48.174;9.782;2023-03-03T13:12:47;95110.97;;;6.18;100.00
21658;BME280;10990;48.174;9.782;2023-03-03T13:15:20;95130.19;;;6.18;100.00
21658;BME280;10990;48.174;9.782;2023-03-03T13:17:59;95153.75;;;5.99;100.00
21658;BME280;10990;48.174;9.782;2023-03-03T13:20:35;95140.84;;;6.17;100.00
21658;BME280;10990;48.174;9.782;2023-03-03T13:23:09;95133.22;;;6.33;100.00
21658;BME280;10990;48.174;9.782;2023-03-03T13:25:48;95138.94;;;6.58;100.00
21658;BME280;10990;48.174;9.782;2023-03-03T13:28:26;95176.06;;;6.24;100.00
21658;BME280;10990;48.174;9.782;2023-03-03T13:31:02;95168.19;;;6.14;100.00
21658;BME280;10990;48.174;9.782;2023-03-03T13:33:33;95154.66;;;6.28;100.00
21658;BME280;10990;48.174;9.782;2023-03-03T13:36:03;95145.41;;;6.34;100.00